createdAt,value
2022-07-30T00:00:27.713Z,10.20
2022-07-30T00:02:55.730Z,11.43
2022-07-30T00:05:25.113Z,11.33
2022-07-30T00:07:53.109Z,11.93
2022-07-30T00:10:23.092Z,11.30
2022-07-30T00:12:51.265Z,13.23
2022-07-30T00:15:19.324Z,13.43
2022-07-30T00:17:49.141Z,12.80
2022-07-30T00:20:18.479Z,12.37
2022-07-30T00:22:48.480Z,11.37
2022-07-30T00:25:16.534Z,12.70
2022-07-30T00:27:45.769Z,17.00
2022-07-30T00:30:14.710Z,12.93
2022-07-30T00:32:43.109Z,11.83
2022-07-30T00:35:11.852Z,12.93
2022-07-30T00:37:40.219Z,11.97
2022-07-30T00:40:10.845Z,12.33
2022-07-30T00:42:40.743Z,11.70
2022-07-30T00:45:10.467Z,12.63
2022-07-30T00:47:39.702Z,14.10
2022-07-30T00:50:10.088Z,13.73
2022-07-30T00:52:39.737Z,12.53
2022-07-30T00:55:12.112Z,12.47
2022-07-30T00:57:40.852Z,13.37
2022-07-30T01:00:12.298Z,12.93
2022-07-30T01:02:40.417Z,13.97
2022-07-30T01:05:09.466Z,12.10
2022-07-30T01:07:37.811Z,11.40
2022-07-30T01:10:06.791Z,12.70
2022-07-30T01:12:36.774Z,12.57
2022-07-30T01:15:07.702Z,11.20
2022-07-30T01:17:36.593Z,12.03
2022-07-30T01:20:08.186Z,12.90
2022-07-30T01:22:49.520Z,12.73
2022-07-30T01:25:26.167Z,12.83
2022-07-30T01:28:00.043Z,14.20
2022-07-30T01:30:30.124Z,16.33
2022-07-30T01:33:00.406Z,15.17
2022-07-30T01:35:31.893Z,14.90
2022-07-30T01:38:03.288Z,15.90
2022-07-30T01:40:33.124Z,14.87
2022-07-30T01:43:04.318Z,16.37
2022-07-30T01:45:41.352Z,15.53
2022-07-30T01:48:12.734Z,16.50
2022-07-30T01:50:45.205Z,16.63
2022-07-30T01:53:16.822Z,16.77
2022-07-30T01:55:45.822Z,15.23
2022-07-30T01:58:17.886Z,16.13
2022-07-30T02:00:50.012Z,15.67
2022-07-30T02:03:18.650Z,14.33
2022-07-30T02:05:51.628Z,14.90
2022-07-30T02:08:29.122Z,14.60
2022-07-30T02:11:05.999Z,15.33
2022-07-30T02:13:40.714Z,13.77
2022-07-30T02:16:16.148Z,14.50
2022-07-30T02:18:58.495Z,14.30
2022-07-30T02:21:36.371Z,15.20
2022-07-30T02:24:09.768Z,15.60
2022-07-30T02:26:39.480Z,15.20
2022-07-30T02:29:11.646Z,14.80
2022-07-30T02:31:41.763Z,16.20
2022-07-30T02:34:12.253Z,16.50
2022-07-30T02:36:43.258Z,15.93
2022-07-30T02:39:14.784Z,15.67
2022-07-30T02:41:46.644Z,14.30
2022-07-30T02:44:21.458Z,14.47
2022-07-30T02:46:52.541Z,14.07
2022-07-30T02:49:23.186Z,14.73
2022-07-30T02:51:53.348Z,15.43
2022-07-30T02:54:24.692Z,18.03
2022-07-30T02:56:54.722Z,17.00
2022-07-30T02:59:26.639Z,15.27
2022-07-30T03:01:56.332Z,16.13
2022-07-30T03:04:25.331Z,16.93
2022-07-30T03:06:56.325Z,16.30
2022-07-30T03:09:24.436Z,14.00
2022-07-30T03:11:55.367Z,14.97
2022-07-30T03:14:24.811Z,14.57
2022-07-30T03:16:57.885Z,14.90
2022-07-30T03:19:31.037Z,16.30
2022-07-30T03:22:02.723Z,15.47
2022-07-30T03:24:32.521Z,14.57
2022-07-30T03:27:04.182Z,13.77
2022-07-30T03:29:34.417Z,15.10
2022-07-30T03:32:02.826Z,15.63
2022-07-30T03:34:33.362Z,15.43
2022-07-30T03:37:06.418Z,15.00
2022-07-30T03:39:36.120Z,14.97
2022-07-30T03:42:04.723Z,16.50
2022-07-30T03:44:35.221Z,16.60
2022-07-30T03:47:06.459Z,15.33
2022-07-30T03:49:34.903Z,15.70
2022-07-30T03:52:04.402Z,15.70
2022-07-30T03:54:34.280Z,16.83
2022-07-30T03:57:03.498Z,16.20
2022-07-30T03:59:34.288Z,17.07
2022-07-30T04:02:04.763Z,15.83
2022-07-30T04:04:35.331Z,17.03
2022-07-30T04:07:03.454Z,15.80
2022-07-30T04:09:31.609Z,15.07
2022-07-30T04:12:00.207Z,13.20
2022-07-30T04:14:28.530Z,14.50
2022-07-30T04:17:03.969Z,18.40
2022-07-30T04:19:37.066Z,16.90
2022-07-30T04:22:08.483Z,17.20
2022-07-30T04:24:38.414Z,15.00
2022-07-30T04:27:07.525Z,15.87
2022-07-30T04:29:36.006Z,16.43
2022-07-30T04:32:06.462Z,15.77
2022-07-30T04:34:34.846Z,16.50
2022-07-30T04:37:03.530Z,14.73
2022-07-30T04:39:31.802Z,15.70
2022-07-30T04:42:00.057Z,14.20
2022-07-30T04:44:27.924Z,15.70
2022-07-30T04:46:55.840Z,15.00
2022-07-30T04:49:25.280Z,14.13
2022-07-30T04:51:54.553Z,15.50
2022-07-30T04:54:23.832Z,14.47
2022-07-30T04:56:54.216Z,14.30
2022-07-30T04:59:24.709Z,12.40
2022-07-30T05:01:54.629Z,13.10
2022-07-30T05:04:26.561Z,13.50
2022-07-30T05:06:55.925Z,13.20
2022-07-30T05:09:25.005Z,13.57
2022-07-30T05:11:53.435Z,16.00
2022-07-30T05:14:21.937Z,13.10
2022-07-30T05:16:50.251Z,12.40
2022-07-30T05:19:19.158Z,12.97
2022-07-30T05:21:49.063Z,12.00
2022-07-30T05:24:16.973Z,11.30
2022-07-30T05:26:46.073Z,10.40
2022-07-30T05:29:18.041Z,10.43
2022-07-30T05:31:49.001Z,10.50
2022-07-30T05:34:17.067Z,11.57
2022-07-30T05:36:45.719Z,10.50
2022-07-30T05:39:16.410Z,9.00
2022-07-30T05:41:44.710Z,8.60
2022-07-30T05:44:12.767Z,8.47
2022-07-30T05:46:41.225Z,8.17
2022-07-30T05:49:09.528Z,8.87
2022-07-30T05:51:37.831Z,9.60
2022-07-30T05:54:06.353Z,9.27
2022-07-30T05:56:36.449Z,10.00
2022-07-30T05:59:04.888Z,9.83
2022-07-30T06:01:33.205Z,8.83
2022-07-30T06:04:01.144Z,8.70
2022-07-30T06:06:29.505Z,7.40
2022-07-30T06:08:57.418Z,7.90
2022-07-30T06:11:25.410Z,8.70
2022-07-30T06:13:54.696Z,7.30
2022-07-30T06:16:22.824Z,8.47
2022-07-30T06:18:51.149Z,8.20
2022-07-30T06:21:19.654Z,6.97
2022-07-30T06:23:50.092Z,6.10
2022-07-30T06:26:18.076Z,5.80
2022-07-30T06:28:46.006Z,5.97
2022-07-30T06:31:16.381Z,6.00
2022-07-30T06:33:44.520Z,6.10
2022-07-30T06:36:14.033Z,5.73
2022-07-30T06:38:42.464Z,5.83
2022-07-30T06:41:11.127Z,5.90
2022-07-30T06:43:39.098Z,6.30
2022-07-30T06:46:07.096Z,6.13
2022-07-30T06:48:37.482Z,5.60
2022-07-30T06:51:05.885Z,5.97
2022-07-30T06:53:35.861Z,6.07
2022-07-30T06:56:10.821Z,6.73
2022-07-30T06:58:39.228Z,7.23
2022-07-30T07:01:11.179Z,6.03
2022-07-30T07:03:41.159Z,6.53
2022-07-30T07:06:10.022Z,5.93
2022-07-30T07:08:40.775Z,7.57
2022-07-30T07:11:08.729Z,5.57
2022-07-30T07:13:37.658Z,6.00
2022-07-30T07:16:06.222Z,6.10
2022-07-30T07:18:34.555Z,5.30
2022-07-30T07:21:04.210Z,5.73
2022-07-30T07:23:39.819Z,5.60
2022-07-30T07:26:11.280Z,5.23
2022-07-30T07:28:40.106Z,6.40
2022-07-30T07:31:08.576Z,6.20
2022-07-30T07:33:36.956Z,6.47
2022-07-30T07:36:06.853Z,5.03
2022-07-30T07:38:35.450Z,4.60
2022-07-30T07:41:03.756Z,5.17
2022-07-30T07:43:31.647Z,4.50
2022-07-30T07:46:00.141Z,4.13
2022-07-30T07:48:28.160Z,4.40
2022-07-30T07:51:00.123Z,4.37
2022-07-30T07:53:30.094Z,3.40
2022-07-30T07:55:58.376Z,2.93
2022-07-30T07:58:26.829Z,3.33
2022-07-30T08:00:56.285Z,3.03
2022-07-30T08:03:24.771Z,3.13
2022-07-30T08:06:00.971Z,3.00
2022-07-30T08:08:36.882Z,3.90
2022-07-30T08:11:06.792Z,4.30
2022-07-30T08:13:48.498Z,4.00
2022-07-30T08:16:20.834Z,5.37
2022-07-30T08:18:48.865Z,4.80
2022-07-30T08:21:17.021Z,4.50
2022-07-30T08:23:46.438Z,3.87
2022-07-30T08:26:14.430Z,3.90
2022-07-30T08:28:45.702Z,3.17
2022-07-30T08:31:14.318Z,3.57
2022-07-30T08:33:42.275Z,3.20
2022-07-30T08:36:10.461Z,3.10
2022-07-30T08:38:39.694Z,2.83
2022-07-30T08:41:09.296Z,4.00
2022-07-30T08:43:39.003Z,3.00
2022-07-30T08:46:13.921Z,3.27
2022-07-30T08:48:43.843Z,2.80
2022-07-30T08:51:12.512Z,3.07
2022-07-30T08:53:41.847Z,3.50
2022-07-30T08:56:11.239Z,3.27
2022-07-30T08:58:40.267Z,3.30
2022-07-30T09:01:08.287Z,3.60
2022-07-30T09:03:44.002Z,3.87
2022-07-30T09:06:12.841Z,3.10
2022-07-30T09:08:41.111Z,2.63
2022-07-30T09:11:11.024Z,3.43
2022-07-30T09:13:41.754Z,2.80
2022-07-30T09:16:20.900Z,3.40
2022-07-30T09:18:49.513Z,3.10
2022-07-30T09:21:18.961Z,3.10
2022-07-30T09:24:01.560Z,3.30
2022-07-30T09:26:32.928Z,3.13
2022-07-30T09:29:16.988Z,3.27
2022-07-30T09:31:55.680Z,3.50
2022-07-30T09:34:29.071Z,3.70
2022-07-30T09:36:58.603Z,3.33
2022-07-30T09:39:31.341Z,3.90
2022-07-30T09:42:01.081Z,2.90
2022-07-30T09:44:31.893Z,2.77
2022-07-30T09:47:01.338Z,2.47
2022-07-30T09:49:30.484Z,2.83
2022-07-30T09:51:59.395Z,2.00
2022-07-30T09:54:50.699Z,1.70
2022-07-30T09:57:25.602Z,2.40
2022-07-30T09:59:57.336Z,2.00
2022-07-30T10:02:33.405Z,2.10
2022-07-30T10:05:14.385Z,2.07
2022-07-30T10:07:51.162Z,1.67
2022-07-30T10:10:25.311Z,1.80
2022-07-30T10:12:59.473Z,2.57
2022-07-30T10:15:32.792Z,2.10
2022-07-30T10:18:06.342Z,2.30
2022-07-30T10:20:35.243Z,3.00
2022-07-30T10:23:08.070Z,2.40
2022-07-30T10:25:49.346Z,2.70
2022-07-30T10:28:24.666Z,2.73
2022-07-30T10:30:54.316Z,2.70
2022-07-30T10:33:35.046Z,2.83
2022-07-30T10:36:05.292Z,3.00
2022-07-30T10:38:39.533Z,2.47
2022-07-30T10:41:22.354Z,2.70
2022-07-30T10:44:26.167Z,2.03
2022-07-30T10:47:07.247Z,2.10
2022-07-30T10:49:41.204Z,1.93
2022-07-30T10:52:12.126Z,2.57
2022-07-30T10:54:43.025Z,2.50
2022-07-30T10:57:15.161Z,2.57
2022-07-30T11:00:13.599Z,2.63
2022-07-30T11:03:16.814Z,2.13
2022-07-30T11:05:48.319Z,2.43
2022-07-30T11:08:42.497Z,2.13
2022-07-30T11:12:04.886Z,2.90
2022-07-30T11:15:06.444Z,2.50
2022-07-30T11:18:02.564Z,2.80
2022-07-30T11:20:31.796Z,2.70
2022-07-30T11:23:35.666Z,2.43
2022-07-30T11:26:04.354Z,2.50
2022-07-30T11:28:37.722Z,2.37
2022-07-30T11:31:54.963Z,2.50
2022-07-30T11:34:32.976Z,2.50
2022-07-30T11:37:18.133Z,2.90
2022-07-30T11:40:13.686Z,2.67
2022-07-30T11:42:43.682Z,2.00
2022-07-30T11:45:27.346Z,2.20
2022-07-30T11:47:58.300Z,2.43
2022-07-30T11:50:30.566Z,3.97
2022-07-30T11:52:59.929Z,2.90
2022-07-30T11:55:32.662Z,2.17
2022-07-30T11:58:02.997Z,3.87
2022-07-30T12:00:41.835Z,2.20
2022-07-30T12:03:15.146Z,2.60
2022-07-30T12:05:46.358Z,3.00
2022-07-30T12:08:33.295Z,2.20
2022-07-30T12:11:05.000Z,2.80
2022-07-30T12:13:43.611Z,3.40
2022-07-30T12:16:16.510Z,3.60
2022-07-30T12:18:45.800Z,4.00
2022-07-30T12:21:17.171Z,4.40
2022-07-30T12:23:56.621Z,4.20
2022-07-30T12:26:27.271Z,3.13
2022-07-30T12:28:56.751Z,3.20
2022-07-30T12:31:24.846Z,3.07
2022-07-30T12:33:52.814Z,2.63
2022-07-30T12:36:31.547Z,3.43
2022-07-30T12:39:00.425Z,4.10
2022-07-30T12:41:53.251Z,3.30
2022-07-30T12:44:40.761Z,2.67
2022-07-30T12:47:22.013Z,2.60
2022-07-30T12:49:52.256Z,2.67
2022-07-30T12:52:27.619Z,2.80
2022-07-30T12:55:01.977Z,2.70
2022-07-30T12:57:30.255Z,2.90
2022-07-30T13:00:07.287Z,3.30
2022-07-30T13:02:36.626Z,3.30
2022-07-30T13:05:11.702Z,2.73
2022-07-30T13:07:56.241Z,2.83
2022-07-30T13:10:30.052Z,3.20
2022-07-30T13:12:59.712Z,2.30
2022-07-30T13:15:27.699Z,3.10
2022-07-30T13:17:55.649Z,3.43
2022-07-30T13:20:23.759Z,3.63
2022-07-30T13:22:51.709Z,3.57
2022-07-30T13:25:21.081Z,3.43
2022-07-30T13:27:49.347Z,2.57
2022-07-30T13:30:17.245Z,2.70
2022-07-30T13:32:45.500Z,2.80
2022-07-30T13:35:13.399Z,2.50
2022-07-30T13:37:41.289Z,2.57
2022-07-30T13:40:10.408Z,2.20
2022-07-30T13:42:40.098Z,2.70
2022-07-30T13:45:08.959Z,2.23
2022-07-30T13:47:37.337Z,2.23
2022-07-30T13:50:05.925Z,2.80
2022-07-30T13:52:34.195Z,3.13
2022-07-30T13:55:03.009Z,3.33
2022-07-30T13:57:31.255Z,2.60
2022-07-30T14:00:00.666Z,2.60
2022-07-30T14:02:30.043Z,3.10
2022-07-30T14:04:59.631Z,2.53
2022-07-30T14:07:27.990Z,2.83
2022-07-30T14:12:56.988Z,2.90
2022-07-30T14:15:27.783Z,2.80
2022-07-30T14:17:56.904Z,2.23
2022-07-30T14:20:28.987Z,3.03
2022-07-30T14:22:57.726Z,2.37
2022-07-30T14:25:25.819Z,2.40
2022-07-30T14:27:53.920Z,2.50
2022-07-30T14:30:22.688Z,2.40
2022-07-30T14:32:58.317Z,3.00
2022-07-30T14:35:28.992Z,2.67
2022-07-30T14:37:56.966Z,2.50
2022-07-30T14:40:28.316Z,2.77
2022-07-30T14:42:56.426Z,2.90
2022-07-30T14:45:25.582Z,3.07
2022-07-30T14:47:55.188Z,2.80
2022-07-30T14:50:23.332Z,3.53
2022-07-30T14:52:52.552Z,4.00
2022-07-30T14:55:20.565Z,2.80
2022-07-30T14:57:49.622Z,3.23
2022-07-30T15:00:18.373Z,3.43
2022-07-30T15:02:46.502Z,2.70
2022-07-30T15:05:16.142Z,3.80
2022-07-30T15:07:44.105Z,3.40
2022-07-30T15:10:12.121Z,3.40
2022-07-30T15:12:40.617Z,3.37
2022-07-30T15:15:10.834Z,4.27
2022-07-30T15:17:40.399Z,3.90
2022-07-30T15:20:11.219Z,4.47
2022-07-30T15:22:40.622Z,4.13
2022-07-30T15:25:09.801Z,4.07
2022-07-30T15:27:38.709Z,4.30
2022-07-30T15:30:08.482Z,4.33
2022-07-30T15:32:37.185Z,6.13
2022-07-30T15:35:09.450Z,5.57
2022-07-30T15:37:42.632Z,5.10
2022-07-30T15:40:11.765Z,4.57
2022-07-30T15:42:40.141Z,5.20
2022-07-30T15:45:18.002Z,4.90
2022-07-30T15:47:47.468Z,7.00
2022-07-30T15:50:16.692Z,7.23
2022-07-30T15:52:46.397Z,6.40
2022-07-30T15:55:14.894Z,5.60
2022-07-30T15:57:43.382Z,6.70
2022-07-30T16:00:13.097Z,4.00
2022-07-30T16:02:41.378Z,4.43
2022-07-30T16:05:14.008Z,4.30
2022-07-30T16:07:43.109Z,3.73
2022-07-30T16:10:12.657Z,3.97
2022-07-30T16:12:42.108Z,4.23
2022-07-30T16:15:11.842Z,3.93
2022-07-30T16:17:40.197Z,3.50
2022-07-30T16:20:10.154Z,4.37
2022-07-30T16:22:38.687Z,3.50
2022-07-30T16:25:07.342Z,3.53
2022-07-30T16:27:36.793Z,3.67
2022-07-30T16:30:05.720Z,2.90
2022-07-30T16:32:34.281Z,3.13
2022-07-30T16:35:02.434Z,3.40
2022-07-30T16:41:17.036Z,3.40
2022-07-30T16:43:46.345Z,3.23
2022-07-30T16:46:14.661Z,3.40
2022-07-30T16:48:46.923Z,2.90
2022-07-30T16:51:19.126Z,3.77
2022-07-30T16:53:48.610Z,3.97
2022-07-30T16:56:17.133Z,4.17
2022-07-30T16:58:46.460Z,5.73
2022-07-30T17:01:14.830Z,4.73
2022-07-30T17:03:43.059Z,4.77
2022-07-30T17:06:11.461Z,4.93
2022-07-30T17:08:39.410Z,4.77
2022-07-30T17:11:08.894Z,4.13
2022-07-30T17:13:48.241Z,7.30
2022-07-30T17:16:16.626Z,4.27
2022-07-30T17:18:44.549Z,4.53
2022-07-30T17:21:12.860Z,4.30
2022-07-30T17:23:40.847Z,3.73
2022-07-30T17:26:11.064Z,3.97
2022-07-30T17:28:39.244Z,4.43
2022-07-30T17:31:08.657Z,3.20
2022-07-30T17:33:36.624Z,5.30
2022-07-30T17:36:08.878Z,5.87
2022-07-30T17:38:36.962Z,5.67
2022-07-30T17:41:05.282Z,4.00
2022-07-30T17:43:33.246Z,6.77
2022-07-30T17:46:01.707Z,4.97
2022-07-30T17:48:31.060Z,6.13
2022-07-30T17:50:59.059Z,5.07
2022-07-30T17:53:29.926Z,4.80
2022-07-30T17:56:03.272Z,4.83
2022-07-30T17:58:31.765Z,7.90
2022-07-30T18:01:02.748Z,6.43
2022-07-30T18:03:32.651Z,5.50
2022-07-30T18:06:00.956Z,4.83
2022-07-30T18:08:32.449Z,4.53
2022-07-30T18:11:00.694Z,4.53
2022-07-30T18:13:28.798Z,5.13
2022-07-30T18:15:57.364Z,5.07
2022-07-30T18:18:25.602Z,4.30
2022-07-30T18:20:55.422Z,5.20
2022-07-30T18:23:23.369Z,7.70
2022-07-30T18:25:54.233Z,6.20
2022-07-30T18:28:23.018Z,5.17
2022-07-30T18:30:51.546Z,5.17
2022-07-30T18:33:19.726Z,5.43
2022-07-30T18:35:48.191Z,5.30
2022-07-30T18:38:17.703Z,4.57
2022-07-30T18:40:58.293Z,5.43
2022-07-30T18:43:27.110Z,6.10
2022-07-30T18:45:56.840Z,6.30
2022-07-30T18:48:25.599Z,6.83
2022-07-30T18:50:54.342Z,5.43
2022-07-30T18:53:24.593Z,5.87
2022-07-30T18:55:53.027Z,5.80
2022-07-30T18:58:21.083Z,6.17
2022-07-30T19:00:51.096Z,6.53
2022-07-30T19:03:22.969Z,7.03
2022-07-30T19:05:51.658Z,7.10
2022-07-30T19:08:19.622Z,6.80
2022-07-30T19:10:49.188Z,7.33
2022-07-30T19:13:17.641Z,6.67
2022-07-30T19:15:45.604Z,6.70
2022-07-30T19:18:14.150Z,6.53
2022-07-30T19:20:42.363Z,5.40
2022-07-30T19:23:10.802Z,6.90
2022-07-30T19:25:39.304Z,5.93
2022-07-30T19:28:08.670Z,6.20
2022-07-30T19:30:36.611Z,6.97
2022-07-30T19:33:06.991Z,6.40
2022-07-30T19:35:37.376Z,6.07
2022-07-30T19:38:06.406Z,6.63
2022-07-30T19:40:39.570Z,7.30
2022-07-30T19:46:58.262Z,6.30
2022-07-30T19:49:29.513Z,5.97
2022-07-30T19:52:10.119Z,7.40
2022-07-30T19:54:45.345Z,6.70
2022-07-30T19:57:13.151Z,5.53
2022-07-30T19:59:46.194Z,6.40
2022-07-30T20:02:35.341Z,6.57
2022-07-30T20:05:04.015Z,6.50
2022-07-30T20:07:34.045Z,6.67
2022-07-30T20:10:03.394Z,7.07
2022-07-30T20:12:31.558Z,7.23
2022-07-30T20:14:59.286Z,7.43
2022-07-30T20:17:28.971Z,7.33
2022-07-30T20:20:03.068Z,8.73
2022-07-30T20:22:34.476Z,7.50
2022-07-30T20:25:02.702Z,7.80
2022-07-30T20:27:37.318Z,8.50
2022-07-30T20:30:09.798Z,8.30
2022-07-30T20:32:46.290Z,8.20
2022-07-30T20:35:14.598Z,8.13
2022-07-30T20:37:55.372Z,7.57
2022-07-30T20:40:24.699Z,7.63
2022-07-30T20:42:55.073Z,8.67
2022-07-30T20:45:24.686Z,7.70
2022-07-30T20:47:56.893Z,7.63
2022-07-30T20:53:14.086Z,8.10
2022-07-30T20:55:43.129Z,7.23
2022-07-30T20:58:16.636Z,7.40
2022-07-30T21:00:49.985Z,7.57
2022-07-30T21:03:21.727Z,7.23
2022-07-30T21:05:51.175Z,7.50
2022-07-30T21:08:20.656Z,6.90
2022-07-30T21:10:48.523Z,7.60
2022-07-30T21:13:17.440Z,7.67
2022-07-30T21:16:01.784Z,8.30
2022-07-30T21:18:33.056Z,9.40
2022-07-30T21:21:01.331Z,14.57
2022-07-30T21:23:32.908Z,9.23
2022-07-30T21:26:05.808Z,8.30
2022-07-30T21:28:36.306Z,9.00
2022-07-30T21:31:07.408Z,7.40
2022-07-30T21:33:37.404Z,8.27
2022-07-30T21:36:10.847Z,8.67
2022-07-30T21:41:41.145Z,9.60
2022-07-30T21:44:10.198Z,9.43
2022-07-30T21:46:40.468Z,9.30
2022-07-30T21:49:10.965Z,8.87
2022-07-30T21:51:39.111Z,9.20
2022-07-30T21:54:08.351Z,9.03
2022-07-30T21:56:41.525Z,9.23
2022-07-30T21:59:10.133Z,9.23
2022-07-30T22:01:39.313Z,9.50
2022-07-30T22:04:17.144Z,8.70
2022-07-30T22:06:45.053Z,8.20
2022-07-30T22:09:19.591Z,9.30
2022-07-30T22:12:06.700Z,8.97
2022-07-30T22:14:38.746Z,9.00
2022-07-30T22:17:14.728Z,9.90
2022-07-30T22:19:54.732Z,9.23
2022-07-30T22:22:27.303Z,9.20
2022-07-30T22:24:57.373Z,8.93
2022-07-30T22:27:26.192Z,9.93
2022-07-30T22:29:55.538Z,9.97
2022-07-30T22:32:23.732Z,9.30
2022-07-30T22:34:53.402Z,9.57
2022-07-30T22:37:21.853Z,10.50
2022-07-30T22:39:50.942Z,10.80
2022-07-30T22:42:20.911Z,11.00
2022-07-30T22:44:53.280Z,10.47
2022-07-30T22:47:50.378Z,11.40
2022-07-30T22:50:12.216Z,12.17
2022-07-30T22:52:49.052Z,11.63
2022-07-30T22:55:25.216Z,10.90
2022-07-30T22:57:52.980Z,12.70
2022-07-30T23:00:27.010Z,12.20
2022-07-30T23:02:56.720Z,10.47
2022-07-30T23:05:26.088Z,12.40
2022-07-30T23:07:54.476Z,12.80
2022-07-30T23:10:24.840Z,12.03
2022-07-30T23:12:19.397Z,7.40
2022-07-30T23:12:55.745Z,12.03
2022-07-30T23:15:23.857Z,12.93
2022-07-30T23:17:51.617Z,13.53
2022-07-30T23:20:21.268Z,13.33
2022-07-30T23:22:50.712Z,14.30
2022-07-30T23:25:19.102Z,13.70
2022-07-30T23:27:47.778Z,15.00
2022-07-30T23:30:15.829Z,14.30
2022-07-30T23:32:43.860Z,13.20
2022-07-30T23:35:12.046Z,13.70
2022-07-30T23:37:48.230Z,14.80
2022-07-30T23:40:19.347Z,14.10
2022-07-30T23:42:47.661Z,15.30
2022-07-30T23:45:15.383Z,13.87
2022-07-30T23:48:00.738Z,13.60
2022-07-30T23:50:30.230Z,14.50
2022-07-30T23:52:58.049Z,13.30
2022-07-30T23:55:27.933Z,14.70
2022-07-30T23:57:56.322Z,13.67
